Details for BMI Regional at EGGD




Go Back


Latest METAR
Local Time

EGGD 170850Z AUTO 26008KT 9999 SCT024 BKN030 BKN046 16/12 Q1021
17/08/2018, 10:02:31

Description
Results
BMI Regional Logo
Number of Pilots based at EGGD
3 Pilots Based here
Number of BMI Regional Flights Departed from EGGD
1 Flights Departed
Number of BMI Regional Flights Arrived at EGGD
0 Flights Arrived
Number of BMI Regional Schedules Departing from EGGD
28 Schedules
Number of BMI Regional Schedules Arriving at EGGD
29 Schedules
Number of BMI Regional Schedules Departing from EGGD availible today
14 Schedules Today
Number of BMI Regional Schedules Arriving at EGGD availible today
15 Schedules Today
Average Landing Rate at EGGD
-225 fpm
BMI Regional Average Landing Rate at EGGD
0 fpm
Total Fuel Purchased at EGGD by BMI Regional
1,692.35 kgs / 3,730.95 lbs

Pilots Based at EGGD


Pilot ID
Pilot Name
Pilot Rank
No. of Flights
No. of Flying Hours
Mark Callison
886
2492.29
Terry Ward
0
0
Justin Fryer
1
2.32
Content